Genius — 2CPA7 — position and weather

sailwx.info

Track history (hours):
 
Tides and Currents Weather Stations Pressure Air Temp Water Temp Dewpoint Dewpoint Depression Visibility Wind Speed Wind Dir Waves Ship Positions

Genius

Last reported at 2015-Jul-24 14:29 UTC. Time now 2015-Aug-02 16:24 UTC.
Position N 01°16' E 104°13'.
Warning: this ship's position is 9 days out of date.

Length 288 m; draft 8.4 m.

Type: Cargo ship. MMSI: 235074615.

Date/timePositionNaut miles runAvg speedWind from/ knotsBaromVisibWave heightAir tempDewpointWater temp
2015-Jul-24 14:29N 01°16' E 104°13'1011.0
2015-Jul-24 13:33N 01°14' E 104°03'1110.9
2015-Jul-24 12:33N 01°12' E 103°53'110 9.8
2015-Jul-24 01:20N 01°55' E 102°11'42 8.7
2015-Jul-23 20:32N 02°20' E 101°38'8 8.6
2015-Jul-23 19:33N 02°27' E 101°34'1010.1
2015-Jul-23 18:33N 02°34' E 101°26'1010.4
2015-Jul-23 17:33N 02°39' E 101°17'3210.6
2015-Jul-23 14:33N 02°53' E 100°48'2110.5
2015-Jul-23 12:33N 03°08' E 100°33'3110.2
2015-Jul-23 09:31N 03°38' E 100°28'2110.5
2015-Jul-23 07:30N 03°60' E 100°26'14 0.8
2015-Jul-22 13:33N 04°09' E 100°36'0 0.0
2015-Jul-22 10:30N 04°09' E 100°36'0 0.0
2015-Jul-21 18:33N 04°09' E 100°36'0 0.0
2015-Jul-21 17:33N 04°09' E 100°36'0 0.0
2015-Jul-20 18:33N 04°09' E 100°36'5 0.2
2015-Jul-19 17:33N 04°08' E 100°31'0 0.0
2015-Jul-19 15:34N 04°08' E 100°31'30 1.5
2015-Jul-18 18:33N 03°38' E 100°28'10 9.1
2015-Jul-18 17:24N 03°28' E 100°32'2010.7
2015-Jul-18 15:33N 03°12' E 100°42'8 7.8
2015-Jul-18 14:33N 03°05' E 100°46'20 9.9
2015-Jul-18 12:33N 02°50' E 100°60'11 8.6
2015-Jul-18 11:13N 02°45' E 101°10'6 8.8
2015-Jul-18 10:33N 02°42' E 101°15'19 9.7
2015-Jul-18 08:33N 02°33' E 101°32'15810.4
2015-Jul-17 17:26N 01°09' E 103°46'9 9.8
2015-Jul-17 16:33N 01°13' E 103°54'4 4.0
2015-Jul-17 15:33N 01°17' E 103°55'0 0.1
2015-Jul-17 14:33N 01°17' E 103°55'0 0.0
2015-Jul-17 13:27N 01°17' E 103°55'0 0.0
2015-Jul-17 11:09N 01°17' E 103°55'0 0.0
2015-Jul-17 10:15N 01°17' E 103°55'0 0.0
2015-Jul-17 09:33N 01°17' E 103°55'0 0.0
2015-Jul-17 07:24N 01°17' E 103°55'0 0.2
2015-Jul-17 06:33N 01°17' E 103°55'0 0.0
2015-Jul-17 05:27N 01°17' E 103°55'0 0.0
2015-Jul-17 04:27N 01°17' E 103°55'0 0.1
2015-Jul-17 03:27N 01°17' E 103°55'1 1.5
2015-Jul-17 02:33N 01°16' E 103°56'4 4.4
2015-Jul-17 01:33N 01°16' E 104°01'  
Track history (hours):
 
Tides and Currents Weather Stations Pressure Air Temp Water Temp Dewpoint Dewpoint Depression Visibility Wind Speed Wind Dir Waves Ship Positions

Genius

Last reported at 2015-Jul-24 14:29 UTC. Time now 2015-Aug-02 16:24 UTC.
Position N 01°16' E 104°13'.
Warning: this ship's position is 9 days out of date.

Length 288 m; draft 8.4 m.

Type: Cargo ship. MMSI: 235074615.

Date/timePositionNaut miles runAvg speedWind from/ knotsBaromVisibWave heightAir tempDewpointWater temp
2015-Jul-24 14:29N 01°16' E 104°13'1011.0
2015-Jul-24 13:33N 01°14' E 104°03'1110.9
2015-Jul-24 12:33N 01°12' E 103°53'110 9.8
2015-Jul-24 01:20N 01°55' E 102°11'42 8.7
2015-Jul-23 20:32N 02°20' E 101°38'8 8.6
2015-Jul-23 19:33N 02°27' E 101°34'1010.1
2015-Jul-23 18:33N 02°34' E 101°26'1010.4
2015-Jul-23 17:33N 02°39' E 101°17'3210.6
2015-Jul-23 14:33N 02°53' E 100°48'2110.5
2015-Jul-23 12:33N 03°08' E 100°33'3110.2
2015-Jul-23 09:31N 03°38' E 100°28'2110.5
2015-Jul-23 07:30N 03°60' E 100°26'14 0.8
2015-Jul-22 13:33N 04°09' E 100°36'0 0.0
2015-Jul-22 10:30N 04°09' E 100°36'0 0.0
2015-Jul-21 18:33N 04°09' E 100°36'0 0.0
2015-Jul-21 17:33N 04°09' E 100°36'0 0.0
2015-Jul-20 18:33N 04°09' E 100°36'5 0.2
2015-Jul-19 17:33N 04°08' E 100°31'0 0.0
2015-Jul-19 15:34N 04°08' E 100°31'30 1.5
2015-Jul-18 18:33N 03°38' E 100°28'10 9.1
2015-Jul-18 17:24N 03°28' E 100°32'2010.7
2015-Jul-18 15:33N 03°12' E 100°42'8 7.8
2015-Jul-18 14:33N 03°05' E 100°46'20 9.9
2015-Jul-18 12:33N 02°50' E 100°60'11 8.6
2015-Jul-18 11:13N 02°45' E 101°10'6 8.8
2015-Jul-18 10:33N 02°42' E 101°15'19 9.7
2015-Jul-18 08:33N 02°33' E 101°32'15810.4
2015-Jul-17 17:26N 01°09' E 103°46'9 9.8
2015-Jul-17 16:33N 01°13' E 103°54'4 4.0
2015-Jul-17 15:33N 01°17' E 103°55'0 0.1
2015-Jul-17 14:33N 01°17' E 103°55'0 0.0
2015-Jul-17 13:27N 01°17' E 103°55'0 0.0
2015-Jul-17 11:09N 01°17' E 103°55'0 0.0
2015-Jul-17 10:15N 01°17' E 103°55'0 0.0
2015-Jul-17 09:33N 01°17' E 103°55'0 0.0
2015-Jul-17 07:24N 01°17' E 103°55'0 0.2
2015-Jul-17 06:33N 01°17' E 103°55'0 0.0
2015-Jul-17 05:27N 01°17' E 103°55'0 0.0
2015-Jul-17 04:27N 01°17' E 103°55'0 0.1
2015-Jul-17 03:27N 01°17' E 103°55'1 1.5
2015-Jul-17 02:33N 01°16' E 103°56'4 4.4
2015-Jul-17 01:33N 01°16' E 104°01'  

Dump ship's entire track history